createdAt,value
2023-01-09T00:00:55.028Z,41.55
2023-01-09T00:01:58.725Z,43.85
2023-01-09T00:03:02.125Z,43.80
2023-01-09T00:04:05.788Z,39.70
2023-01-09T00:05:12.213Z,40.70
2023-01-09T00:06:15.490Z,46.75
2023-01-09T00:07:18.618Z,46.92
2023-01-09T00:08:21.984Z,42.20
2023-01-09T00:09:25.410Z,38.80
2023-01-09T00:10:28.717Z,39.28
2023-01-09T00:11:32.615Z,42.15
2023-01-09T00:12:38.057Z,40.83
2023-01-09T00:13:41.119Z,45.83
2023-01-09T00:14:44.415Z,43.20
2023-01-09T00:15:49.032Z,37.58
2023-01-09T00:16:55.883Z,41.05
2023-01-09T00:17:59.028Z,37.33
2023-01-09T00:19:02.256Z,39.63
2023-01-09T00:20:07.985Z,45.72
2023-01-09T00:21:13.269Z,41.90
2023-01-09T00:22:16.630Z,41.03
2023-01-09T00:23:19.734Z,39.63
2023-01-09T00:24:22.896Z,36.53
2023-01-09T00:25:26.257Z,37.17
2023-01-09T00:26:29.567Z,36.75
2023-01-09T00:27:35.838Z,39.00
2023-01-09T00:28:39.986Z,44.15
2023-01-09T00:29:45.977Z,40.65
2023-01-09T00:30:58.191Z,38.92
2023-01-09T00:32:01.403Z,39.00
2023-01-09T00:33:04.817Z,38.13
2023-01-09T00:34:10.577Z,36.75
2023-01-09T00:35:17.858Z,38.30
2023-01-09T00:36:21.098Z,42.75
2023-01-09T00:37:24.587Z,35.72
2023-01-09T00:38:28.508Z,36.13
2023-01-09T00:39:31.643Z,41.47
2023-01-09T00:40:34.911Z,41.20
2023-01-09T00:41:49.389Z,37.42
2023-01-09T00:42:56.623Z,39.30
2023-01-09T00:44:10.413Z,39.60
2023-01-09T00:45:23.660Z,38.72
2023-01-09T00:46:33.164Z,39.22
2023-01-09T00:47:42.999Z,40.70
2023-01-09T00:48:48.913Z,39.22
2023-01-09T00:49:53.516Z,36.85
2023-01-09T00:51:00.432Z,42.15
2023-01-09T00:52:05.650Z,39.15
2023-01-09T00:53:15.651Z,41.88
2023-01-09T00:54:20.125Z,37.05
2023-01-09T00:55:24.080Z,39.85
2023-01-09T00:56:27.393Z,41.90
2023-01-09T00:57:31.257Z,38.90
2023-01-09T00:58:35.896Z,39.83
2023-01-09T00:59:40.241Z,37.97
2023-01-09T01:00:43.582Z,37.45
2023-01-09T01:01:47.188Z,37.65
2023-01-09T01:02:50.785Z,45.53
2023-01-09T01:03:54.275Z,40.65
2023-01-09T01:05:16.281Z,41.72
2023-01-09T01:06:37.980Z,38.42
2023-01-09T01:07:42.942Z,36.67
2023-01-09T01:08:46.514Z,32.42
2023-01-09T01:09:49.725Z,38.72
2023-01-09T01:10:53.001Z,34.45
2023-01-09T01:11:56.144Z,40.72
2023-01-09T01:12:59.282Z,41.53
2023-01-09T01:14:02.953Z,45.10
2023-01-09T01:15:07.483Z,42.00
2023-01-09T01:16:13.449Z,38.90
2023-01-09T01:17:16.683Z,39.03
2023-01-09T01:18:19.963Z,38.70
2023-01-09T01:19:23.118Z,42.10
2023-01-09T01:20:26.781Z,40.30
2023-01-09T01:21:30.006Z,41.10
2023-01-09T01:22:33.521Z,41.97
2023-01-09T01:23:37.688Z,40.85
2023-01-09T01:24:40.881Z,42.00
2023-01-09T01:25:44.067Z,36.60
2023-01-09T01:26:47.655Z,39.58
2023-01-09T01:27:50.897Z,47.28
2023-01-09T01:28:54.004Z,39.25
2023-01-09T01:29:57.395Z,44.40
2023-01-09T01:31:02.342Z,39.15
2023-01-09T01:32:05.588Z,38.97
2023-01-09T01:33:10.614Z,36.53
2023-01-09T01:34:13.898Z,41.25
2023-01-09T01:35:17.423Z,42.70
2023-01-09T01:36:20.699Z,35.60
2023-01-09T01:37:24.703Z,40.83
2023-01-09T01:38:29.790Z,38.38
2023-01-09T01:39:33.083Z,37.33
2023-01-09T01:40:38.256Z,44.03
2023-01-09T01:41:41.452Z,32.22
2023-01-09T01:42:54.096Z,38.40
2023-01-09T01:44:06.960Z,33.65
2023-01-09T01:45:30.686Z,36.78
2023-01-09T01:46:34.786Z,35.30
2023-01-09T01:47:59.550Z,36.88
2023-01-09T01:49:16.704Z,37.03
2023-01-09T01:50:40.793Z,39.45
2023-01-09T01:51:50.597Z,37.88
2023-01-09T01:53:17.639Z,38.03
2023-01-09T01:54:30.094Z,36.95
2023-01-09T01:55:39.151Z,38.85
2023-01-09T01:56:51.431Z,34.85
2023-01-09T01:58:01.077Z,33.03
2023-01-09T01:59:18.449Z,36.30
2023-01-09T02:00:31.198Z,38.92
2023-01-09T02:01:36.446Z,43.03
2023-01-09T02:02:39.953Z,35.97
2023-01-09T02:03:44.355Z,36.67
2023-01-09T02:04:48.886Z,39.15
2023-01-09T02:05:52.067Z,40.30
2023-01-09T02:06:57.204Z,35.67
2023-01-09T02:08:00.570Z,41.70
2023-01-09T02:09:05.812Z,33.45
2023-01-09T02:10:09.965Z,33.65
2023-01-09T02:11:14.608Z,31.58
2023-01-09T02:12:26.969Z,38.13
2023-01-09T02:13:32.709Z,32.00
2023-01-09T02:14:35.851Z,35.97
2023-01-09T02:16:39.119Z,38.65
2023-01-09T02:17:54.669Z,36.42
2023-01-09T02:19:28.340Z,39.15
2023-01-09T02:20:41.258Z,34.33
2023-01-09T02:22:12.867Z,34.75
2023-01-09T02:23:27.452Z,36.90
2023-01-09T02:24:57.297Z,33.15
2023-01-09T02:26:36.180Z,33.00
2023-01-09T02:27:54.924Z,33.53
2023-01-09T02:29:39.526Z,32.83
2023-01-09T02:31:21.611Z,32.20
2023-01-09T02:32:44.098Z,33.38
2023-01-09T02:34:19.902Z,35.97
2023-01-09T02:35:53.494Z,33.72
2023-01-09T02:37:27.957Z,37.95
2023-01-09T02:39:09.814Z,33.95
2023-01-09T02:40:44.447Z,35.13
2023-01-09T02:42:09.031Z,34.80
2023-01-09T02:43:13.363Z,41.63
2023-01-09T02:44:29.990Z,33.30
2023-01-09T02:45:33.190Z,39.33
2023-01-09T02:46:36.321Z,33.47
2023-01-09T02:47:46.006Z,35.58
2023-01-09T02:48:54.088Z,35.05
2023-01-09T02:50:05.024Z,36.63
2023-01-09T02:51:23.639Z,33.70
2023-01-09T02:52:41.523Z,41.10
2023-01-09T02:54:17.679Z,35.13
2023-01-09T02:55:51.557Z,36.33
2023-01-09T02:57:06.568Z,37.22
2023-01-09T02:58:30.561Z,35.13
2023-01-09T02:59:56.561Z,31.15
2023-01-09T03:01:46.430Z,34.10
2023-01-09T03:03:21.916Z,39.72
2023-01-09T03:04:45.045Z,37.38
2023-01-09T03:06:06.072Z,37.17
2023-01-09T03:07:25.321Z,40.30
2023-01-09T03:08:38.145Z,36.88
2023-01-09T03:09:44.051Z,38.75
2023-01-09T03:11:00.752Z,38.83
2023-01-09T03:12:32.544Z,32.60
2023-01-09T03:13:47.444Z,38.67
2023-01-09T03:14:56.807Z,37.70
2023-01-09T03:16:06.366Z,34.90
2023-01-09T03:17:16.751Z,36.78
2023-01-09T03:18:24.746Z,41.50
2023-01-09T03:19:31.447Z,39.85
2023-01-09T03:20:37.363Z,39.08
2023-01-09T03:21:40.981Z,32.55
2023-01-09T03:22:59.823Z,38.75
2023-01-09T03:24:03.302Z,37.00
2023-01-09T03:25:07.038Z,34.80
2023-01-09T03:26:12.326Z,34.90
2023-01-09T03:27:15.839Z,37.20
2023-01-09T03:28:29.633Z,33.70
2023-01-09T03:29:32.824Z,31.58
2023-01-09T03:30:37.469Z,36.42
2023-01-09T03:31:40.749Z,34.42
2023-01-09T03:32:43.938Z,39.60
2023-01-09T03:33:47.093Z,37.33
2023-01-09T03:34:50.468Z,34.67
2023-01-09T03:35:53.586Z,39.28
2023-01-09T03:36:56.714Z,46.05
2023-01-09T03:38:00.027Z,35.85
2023-01-09T03:39:03.491Z,35.35
2023-01-09T03:40:07.713Z,36.65
2023-01-09T03:41:11.079Z,39.10
2023-01-09T03:42:14.201Z,36.63
2023-01-09T03:43:17.553Z,31.65
2023-01-09T03:44:20.923Z,35.17
2023-01-09T03:45:24.149Z,34.22
2023-01-09T03:46:27.311Z,35.45
2023-01-09T03:47:30.756Z,31.92
2023-01-09T03:48:33.984Z,39.88
2023-01-09T03:49:37.060Z,38.20
2023-01-09T03:50:42.625Z,36.67
2023-01-09T03:51:45.765Z,39.22
2023-01-09T03:52:48.910Z,35.97
2023-01-09T03:53:52.035Z,38.53
2023-01-09T03:54:57.659Z,43.90
2023-01-09T03:56:00.793Z,36.95
2023-01-09T03:57:04.083Z,34.08
2023-01-09T03:58:07.404Z,34.13
2023-01-09T03:59:10.574Z,32.90
2023-01-09T04:00:14.401Z,34.92
2023-01-09T04:01:17.576Z,33.63
2023-01-09T04:02:20.821Z,37.08
2023-01-09T04:03:24.013Z,35.95
2023-01-09T04:04:27.317Z,36.58
2023-01-09T04:05:30.463Z,32.88
2023-01-09T04:06:33.689Z,33.55
2023-01-09T04:07:36.858Z,40.05
2023-01-09T04:08:40.022Z,36.22
2023-01-09T04:09:43.224Z,36.83
2023-01-09T04:10:48.746Z,34.03
2023-01-09T04:11:52.015Z,31.58
2023-01-09T04:12:55.337Z,42.08
2023-01-09T04:13:58.445Z,32.95
2023-01-09T04:15:01.596Z,35.90
2023-01-09T04:16:05.312Z,32.80
2023-01-09T04:17:08.784Z,34.65
2023-01-09T04:18:12.045Z,33.03
2023-01-09T04:19:15.129Z,39.22
2023-01-09T04:20:18.584Z,40.13
2023-01-09T04:21:21.757Z,34.10
2023-01-09T04:22:25.638Z,33.47
2023-01-09T04:23:28.733Z,42.70
2023-01-09T04:24:32.518Z,36.67
2023-01-09T04:25:35.597Z,33.72
2023-01-09T04:26:38.832Z,33.08
2023-01-09T04:27:42.027Z,36.53
2023-01-09T04:28:45.118Z,35.30
2023-01-09T04:29:48.377Z,36.25
2023-01-09T04:30:51.576Z,34.78
2023-01-09T04:31:54.763Z,36.70
2023-01-09T04:32:57.968Z,35.83
2023-01-09T04:34:01.130Z,32.53
2023-01-09T04:35:04.986Z,33.83
2023-01-09T04:36:08.729Z,34.30
2023-01-09T04:37:12.035Z,34.65
2023-01-09T04:38:15.144Z,31.42
2023-01-09T04:39:18.374Z,29.13
2023-01-09T04:40:21.585Z,36.80
2023-01-09T04:41:43.098Z,32.63
2023-01-09T04:42:46.655Z,35.63
2023-01-09T04:43:49.797Z,35.20
2023-01-09T04:44:54.160Z,33.75
2023-01-09T04:45:57.421Z,27.85
2023-01-09T04:47:00.579Z,34.85
2023-01-09T04:48:04.083Z,31.05
2023-01-09T04:49:07.231Z,32.38
2023-01-09T04:50:12.155Z,32.10
2023-01-09T04:51:15.301Z,33.78
2023-01-09T04:52:18.486Z,30.27
2023-01-09T04:53:21.781Z,34.25
2023-01-09T04:54:25.109Z,31.40
2023-01-09T04:55:28.196Z,32.45
2023-01-09T04:56:31.517Z,33.78
2023-01-09T04:57:35.924Z,31.83
2023-01-09T04:58:39.044Z,28.75
2023-01-09T04:59:42.196Z,32.90
2023-01-09T05:00:45.288Z,27.92
2023-01-09T05:01:48.574Z,30.10
2023-01-09T05:02:51.825Z,29.40
2023-01-09T05:03:54.992Z,32.13
2023-01-09T05:04:58.121Z,30.92
2023-01-09T05:06:01.234Z,33.00
2023-01-09T05:07:04.521Z,27.38
2023-01-09T05:08:07.650Z,27.98
2023-01-09T05:09:10.748Z,31.90
2023-01-09T05:10:13.949Z,34.33
2023-01-09T05:11:17.349Z,31.35
2023-01-09T05:12:20.447Z,28.98
2023-01-09T05:13:23.861Z,27.95
2023-01-09T05:14:26.935Z,33.17
2023-01-09T05:15:31.053Z,36.28
2023-01-09T05:16:34.443Z,29.02
2023-01-09T05:17:37.767Z,30.30
2023-01-09T05:18:40.978Z,30.20
2023-01-09T05:19:45.594Z,31.83
2023-01-09T05:20:49.049Z,25.27
2023-01-09T05:21:52.197Z,25.70
2023-01-09T05:22:55.289Z,28.10
2023-01-09T05:23:58.833Z,28.85
2023-01-09T05:25:02.168Z,31.50
2023-01-09T05:26:05.821Z,26.70
2023-01-09T05:27:08.949Z,32.75
2023-01-09T05:28:12.175Z,32.45
2023-01-09T05:29:15.346Z,28.65
2023-01-09T05:30:18.951Z,30.33
2023-01-09T05:31:23.036Z,35.63
2023-01-09T05:32:26.436Z,29.60
2023-01-09T05:33:29.658Z,32.17
2023-01-09T05:34:32.834Z,29.52
2023-01-09T05:35:36.159Z,28.50
2023-01-09T05:36:39.449Z,24.98
2023-01-09T05:37:42.628Z,29.58
2023-01-09T05:38:45.884Z,30.42
2023-01-09T05:39:49.082Z,31.30
2023-01-09T05:40:52.464Z,30.95
2023-01-09T05:41:55.688Z,29.08
2023-01-09T05:42:58.905Z,27.85
2023-01-09T05:44:02.029Z,28.73
2023-01-09T05:45:06.825Z,27.58
2023-01-09T05:46:09.900Z,32.67
2023-01-09T05:47:13.201Z,29.98
2023-01-09T05:48:16.273Z,29.92
2023-01-09T05:49:19.546Z,29.60
2023-01-09T05:50:22.769Z,28.77
2023-01-09T05:51:25.971Z,29.63
2023-01-09T05:52:29.070Z,31.92
2023-01-09T05:53:32.123Z,30.20
2023-01-09T05:54:35.352Z,31.95
2023-01-09T05:55:38.611Z,30.35
2023-01-09T05:56:42.699Z,32.17
2023-01-09T05:57:45.928Z,30.20
2023-01-09T05:58:49.222Z,29.33
2023-01-09T05:59:52.462Z,29.38
2023-01-09T06:00:55.639Z,31.42
2023-01-09T06:01:58.867Z,28.73
2023-01-09T06:03:02.201Z,30.92
2023-01-09T06:04:05.524Z,33.17
2023-01-09T06:05:09.702Z,26.42
2023-01-09T06:06:12.871Z,29.77
2023-01-09T06:07:20.289Z,27.05
2023-01-09T06:08:24.749Z,26.33
2023-01-09T06:09:28.009Z,27.67
2023-01-09T06:10:31.199Z,29.88
2023-01-09T06:11:35.918Z,28.27
2023-01-09T06:12:39.493Z,29.10
2023-01-09T06:13:42.559Z,33.58
2023-01-09T06:14:45.672Z,28.02
2023-01-09T06:15:49.400Z,29.92
2023-01-09T06:16:52.599Z,28.42
2023-01-09T06:17:55.732Z,29.17
2023-01-09T06:18:58.864Z,30.55
2023-01-09T06:20:01.975Z,28.85
2023-01-09T06:21:05.480Z,26.02
2023-01-09T06:22:08.732Z,27.38
2023-01-09T06:23:13.733Z,29.50
2023-01-09T06:24:17.174Z,28.88
2023-01-09T06:25:20.394Z,32.47
2023-01-09T06:26:24.310Z,31.88
2023-01-09T06:27:27.579Z,32.10
2023-01-09T06:28:30.762Z,29.00
2023-01-09T06:29:33.866Z,25.08
2023-01-09T06:30:36.977Z,28.92
2023-01-09T06:31:40.210Z,29.77
2023-01-09T06:32:43.619Z,33.83
2023-01-09T06:33:46.916Z,26.58
2023-01-09T06:34:50.018Z,29.95
2023-01-09T06:35:53.250Z,27.33
2023-01-09T06:36:56.463Z,28.45
2023-01-09T06:38:01.478Z,29.42
2023-01-09T06:39:04.736Z,27.00
2023-01-09T06:40:08.760Z,27.30
2023-01-09T06:41:11.845Z,31.83
2023-01-09T06:42:14.984Z,35.72
2023-01-09T06:43:18.159Z,30.75
2023-01-09T06:44:21.318Z,25.58
2023-01-09T06:45:24.502Z,27.88
2023-01-09T06:46:27.745Z,29.30
2023-01-09T06:47:30.880Z,24.52
2023-01-09T06:48:34.751Z,26.17
2023-01-09T06:49:37.862Z,29.33
2023-01-09T06:50:41.261Z,22.15
2023-01-09T06:51:44.377Z,31.80
2023-01-09T06:52:47.576Z,30.95
2023-01-09T06:53:50.858Z,27.25
2023-01-09T06:54:54.019Z,32.83
2023-01-09T06:55:57.104Z,25.95
2023-01-09T06:57:01.073Z,27.58
2023-01-09T06:58:04.218Z,24.65
2023-01-09T06:59:07.313Z,28.00
2023-01-09T07:00:11.571Z,29.08
2023-01-09T07:01:15.048Z,32.28
2023-01-09T07:02:21.097Z,29.00
2023-01-09T07:03:24.588Z,24.90
2023-01-09T07:04:27.786Z,29.48
2023-01-09T07:05:34.874Z,27.20
2023-01-09T07:06:38.867Z,24.60
2023-01-09T07:07:42.293Z,26.88
2023-01-09T07:08:47.773Z,25.05
2023-01-09T07:09:51.074Z,25.50
2023-01-09T07:10:54.144Z,23.10
2023-01-09T07:11:57.288Z,25.02
2023-01-09T07:13:00.376Z,22.63
2023-01-09T07:14:03.571Z,26.20
2023-01-09T07:15:07.688Z,24.38
2023-01-09T07:16:10.968Z,24.20
2023-01-09T07:17:14.330Z,27.42
2023-01-09T07:18:17.527Z,23.88
2023-01-09T07:19:20.708Z,25.08
2023-01-09T07:20:23.870Z,29.95
2023-01-09T07:21:27.751Z,29.88
2023-01-09T07:22:30.901Z,29.55
2023-01-09T07:23:34.757Z,25.13
2023-01-09T07:24:37.917Z,25.88
2023-01-09T07:25:42.946Z,28.20
2023-01-09T07:26:46.466Z,29.83
2023-01-09T07:27:49.596Z,25.60
2023-01-09T07:28:52.695Z,26.80
2023-01-09T07:29:55.741Z,25.20
2023-01-09T07:31:02.629Z,27.23
2023-01-09T07:32:05.971Z,24.13
2023-01-09T07:33:09.155Z,26.73
2023-01-09T07:34:12.404Z,21.77
2023-01-09T07:35:15.679Z,34.05
2023-01-09T07:36:19.041Z,26.80
2023-01-09T07:37:22.186Z,30.55
2023-01-09T07:38:25.465Z,31.77
2023-01-09T07:39:28.768Z,30.70
2023-01-09T07:40:32.000Z,24.52
2023-01-09T07:41:35.124Z,25.25
2023-01-09T07:42:38.338Z,23.95
2023-01-09T07:43:41.454Z,25.08
2023-01-09T07:44:44.766Z,22.95
2023-01-09T07:45:47.906Z,27.90
2023-01-09T07:46:51.212Z,25.30
2023-01-09T07:47:54.390Z,23.73
2023-01-09T07:48:57.613Z,28.33
2023-01-09T07:50:00.835Z,26.10
2023-01-09T07:51:04.740Z,29.48
2023-01-09T07:52:07.929Z,29.08
2023-01-09T07:53:11.104Z,24.30
2023-01-09T07:54:14.809Z,24.75
2023-01-09T07:55:17.887Z,30.70
2023-01-09T07:56:21.197Z,25.98
2023-01-09T07:57:24.367Z,28.50
2023-01-09T07:58:27.637Z,29.55
2023-01-09T07:59:30.838Z,28.85
2023-01-09T08:00:34.204Z,25.60
2023-01-09T08:01:37.618Z,26.08
2023-01-09T08:02:40.889Z,25.95
2023-01-09T08:03:44.124Z,25.20
2023-01-09T08:04:47.229Z,23.80
2023-01-09T08:05:51.561Z,30.17
2023-01-09T08:06:54.925Z,26.38
2023-01-09T08:07:58.023Z,23.33
2023-01-09T08:09:01.383Z,26.48
2023-01-09T08:10:05.199Z,23.20
2023-01-09T08:11:08.374Z,25.02
2023-01-09T08:12:11.528Z,27.20
2023-01-09T08:13:14.762Z,22.08
2023-01-09T08:14:17.922Z,23.60
2023-01-09T08:15:21.073Z,25.88
2023-01-09T08:16:24.138Z,20.52
2023-01-09T08:17:27.411Z,23.38
2023-01-09T08:18:30.458Z,25.48
2023-01-09T08:19:33.557Z,23.20
2023-01-09T08:20:36.807Z,27.60
2023-01-09T08:21:40.473Z,23.65
2023-01-09T08:22:49.755Z,23.08
2023-01-09T08:23:53.112Z,24.20
2023-01-09T08:24:56.199Z,25.80
2023-01-09T08:25:59.470Z,22.80
2023-01-09T08:27:03.166Z,22.73
2023-01-09T08:28:06.379Z,25.33
2023-01-09T08:29:09.586Z,22.30
2023-01-09T08:30:13.423Z,29.63
2023-01-09T08:31:16.934Z,24.30
2023-01-09T08:32:20.180Z,21.30
2023-01-09T08:33:23.307Z,28.60
2023-01-09T08:34:26.520Z,22.65
2023-01-09T08:35:29.778Z,28.08
2023-01-09T08:36:32.994Z,22.77
2023-01-09T08:37:36.491Z,23.17
2023-01-09T08:38:39.593Z,22.98
2023-01-09T08:39:42.763Z,26.15
2023-01-09T08:40:47.862Z,24.23
2023-01-09T08:42:09.642Z,27.48
2023-01-09T08:43:31.549Z,19.13
2023-01-09T08:44:52.885Z,23.63
2023-01-09T08:46:14.766Z,23.40
2023-01-09T08:47:23.579Z,20.50
2023-01-09T08:48:26.775Z,25.85
2023-01-09T08:49:29.939Z,24.85
2023-01-09T08:50:33.527Z,21.73
2023-01-09T08:51:36.639Z,20.83
2023-01-09T08:52:39.879Z,28.45
2023-01-09T08:53:43.231Z,21.38
2023-01-09T08:54:46.461Z,23.40
2023-01-09T08:55:50.469Z,21.00
2023-01-09T08:56:53.634Z,25.23
2023-01-09T08:57:56.762Z,23.40
2023-01-09T08:58:59.996Z,21.13
2023-01-09T09:00:04.654Z,22.13
2023-01-09T09:01:08.434Z,26.30
2023-01-09T09:02:11.585Z,23.70
2023-01-09T09:03:14.886Z,24.77
2023-01-09T09:04:18.135Z,26.65
2023-01-09T09:05:23.380Z,25.42
2023-01-09T09:06:26.689Z,22.20
2023-01-09T09:07:30.011Z,19.98
2023-01-09T09:08:33.334Z,20.13
2023-01-09T09:09:36.678Z,19.10
2023-01-09T09:10:39.960Z,29.27
2023-01-09T09:11:43.258Z,22.48
2023-01-09T09:12:50.150Z,23.70
2023-01-09T09:13:53.414Z,24.88
2023-01-09T09:15:12.755Z,25.25
2023-01-09T09:16:15.974Z,21.13
2023-01-09T09:17:19.189Z,24.73
2023-01-09T09:18:22.375Z,21.42
2023-01-09T09:19:25.516Z,27.92
2023-01-09T09:20:38.917Z,26.20
2023-01-09T09:21:42.051Z,23.45
2023-01-09T09:22:47.855Z,24.48
2023-01-09T09:23:50.965Z,23.52
2023-01-09T09:24:54.287Z,27.85
2023-01-09T09:25:57.563Z,19.75
2023-01-09T09:27:00.711Z,25.92
2023-01-09T09:28:04.551Z,23.45
2023-01-09T09:29:07.913Z,19.63
2023-01-09T09:30:13.363Z,22.48
2023-01-09T09:31:16.654Z,19.83
2023-01-09T09:32:19.817Z,24.13
2023-01-09T09:33:22.982Z,23.20
2023-01-09T09:34:26.282Z,21.05
2023-01-09T09:35:31.142Z,23.17
2023-01-09T09:36:34.983Z,23.02
2023-01-09T09:37:38.206Z,29.25
2023-01-09T09:38:41.422Z,23.42
2023-01-09T09:39:44.579Z,20.15
2023-01-09T09:41:29.047Z,25.70
2023-01-09T09:43:08.654Z,22.83
2023-01-09T09:44:59.176Z,21.73
2023-01-09T09:46:42.527Z,20.85
2023-01-09T09:48:18.938Z,20.98
2023-01-09T09:49:44.433Z,22.20
2023-01-09T09:51:32.343Z,18.00
2023-01-09T09:52:59.714Z,23.30
2023-01-09T09:54:34.658Z,22.48
2023-01-09T09:55:42.669Z,22.15
2023-01-09T09:56:56.349Z,22.52
2023-01-09T09:58:06.857Z,24.83
2023-01-09T09:59:24.961Z,21.88
2023-01-09T10:00:29.852Z,19.85
2023-01-09T10:02:05.732Z,22.42
2023-01-09T10:03:33.865Z,19.98
2023-01-09T10:04:46.242Z,23.30
2023-01-09T10:05:51.917Z,23.23
2023-01-09T10:07:06.198Z,20.35
2023-01-09T10:08:53.595Z,26.30
2023-01-09T10:10:02.050Z,20.55
2023-01-09T10:11:13.101Z,20.77
2023-01-09T10:12:27.931Z,18.63
2023-01-09T10:13:49.527Z,25.38
2023-01-09T10:14:53.281Z,21.08
2023-01-09T10:16:40.520Z,20.98
2023-01-09T10:18:52.033Z,28.40
2023-01-09T10:20:01.211Z,19.40
2023-01-09T10:21:26.649Z,19.35
2023-01-09T10:22:56.353Z,25.85
2023-01-09T10:24:36.309Z,20.80
2023-01-09T10:25:49.974Z,24.73
2023-01-09T10:26:54.247Z,22.45
2023-01-09T10:28:38.377Z,22.40
2023-01-09T10:30:04.370Z,30.60
2023-01-09T10:31:37.137Z,19.63
2023-01-09T10:33:21.876Z,26.23
2023-01-09T10:34:54.968Z,21.75
2023-01-09T10:36:19.448Z,20.73
2023-01-09T10:37:43.808Z,19.27
2023-01-09T10:38:52.359Z,21.02
2023-01-09T10:40:20.461Z,19.73
2023-01-09T10:42:02.203Z,23.70
2023-01-09T10:43:13.853Z,20.80
2023-01-09T10:44:26.720Z,21.80
2023-01-09T10:45:47.305Z,25.83
2023-01-09T10:46:56.040Z,28.08
2023-01-09T10:48:06.605Z,23.10
2023-01-09T10:49:17.731Z,30.38
2023-01-09T10:50:23.988Z,30.10
2023-01-09T10:51:49.507Z,29.40
2023-01-09T10:55:44.968Z,28.13
2023-01-09T10:57:06.597Z,27.30
2023-01-09T10:58:20.285Z,27.15
2023-01-09T10:59:24.589Z,30.05
2023-01-09T11:00:27.839Z,30.60
2023-01-09T11:01:38.697Z,27.35
2023-01-09T11:02:42.416Z,23.40
2023-01-09T11:03:45.863Z,29.63
2023-01-09T11:04:49.485Z,24.73
2023-01-09T11:05:59.545Z,27.05
2023-01-09T11:07:19.985Z,29.52
2023-01-09T11:08:41.957Z,24.88
2023-01-09T11:10:14.243Z,22.02
2023-01-09T11:11:45.505Z,28.23
2023-01-09T11:12:49.053Z,24.83
2023-01-09T11:14:14.805Z,26.52
2023-01-09T11:15:29.182Z,30.95
2023-01-09T11:16:32.715Z,23.98
2023-01-09T11:17:35.906Z,24.00
2023-01-09T11:18:48.828Z,29.23
2023-01-09T11:20:07.205Z,25.77
2023-01-09T11:21:38.091Z,21.35
2023-01-09T11:22:47.534Z,24.00
2023-01-09T11:23:50.989Z,26.90
2023-01-09T11:25:05.553Z,24.10
2023-01-09T11:26:27.486Z,24.70
2023-01-09T11:27:30.828Z,25.98
2023-01-09T11:28:34.058Z,22.63
2023-01-09T11:29:37.881Z,25.52
2023-01-09T11:30:57.286Z,27.73
2023-01-09T11:32:02.098Z,22.05
2023-01-09T11:33:34.853Z,24.77
2023-01-09T11:34:39.132Z,19.30
2023-01-09T11:36:13.906Z,22.70
2023-01-09T11:37:29.609Z,26.33
2023-01-09T11:38:51.221Z,23.42
2023-01-09T11:39:56.496Z,21.65
2023-01-09T11:41:04.274Z,28.35
2023-01-09T11:42:43.387Z,30.75
2023-01-09T11:43:50.370Z,24.08
2023-01-09T11:44:59.492Z,23.00
2023-01-09T11:46:07.803Z,24.92
2023-01-09T11:47:40.111Z,20.65
2023-01-09T11:48:58.851Z,21.25
2023-01-09T11:50:32.091Z,23.42
2023-01-09T11:51:37.129Z,25.50
2023-01-09T11:52:40.304Z,22.40
2023-01-09T11:53:58.601Z,21.50
2023-01-09T11:55:10.752Z,24.85
2023-01-09T11:56:16.982Z,21.42
2023-01-09T11:57:23.251Z,22.88
2023-01-09T11:58:35.467Z,21.33
2023-01-09T11:59:38.930Z,23.95
2023-01-09T12:01:09.274Z,22.75
2023-01-09T12:02:28.565Z,22.85
2023-01-09T12:04:06.237Z,25.52
2023-01-09T12:05:30.316Z,22.17
2023-01-09T12:07:04.554Z,26.95
2023-01-09T12:08:53.590Z,22.45
2023-01-09T12:10:23.562Z,21.45
2023-01-09T12:12:02.207Z,21.40
2023-01-09T12:13:23.742Z,23.77
2023-01-09T12:15:08.595Z,22.42
2023-01-09T12:16:40.515Z,21.42
2023-01-09T12:18:01.569Z,23.50
2023-01-09T12:19:58.975Z,22.83
2023-01-09T12:21:36.542Z,25.67
2023-01-09T12:22:48.744Z,25.38
2023-01-09T12:24:39.256Z,23.70
2023-01-09T12:26:07.172Z,21.25
2023-01-09T12:27:18.879Z,24.88
2023-01-09T12:28:51.636Z,24.77
2023-01-09T12:30:45.335Z,22.80
2023-01-09T12:32:00.202Z,22.90
2023-01-09T12:33:34.325Z,20.85
2023-01-09T12:35:15.469Z,26.17
2023-01-09T12:36:36.970Z,21.90
2023-01-09T12:38:02.768Z,21.13
2023-01-09T12:39:23.982Z,20.98
2023-01-09T12:40:42.083Z,25.35
2023-01-09T12:42:00.488Z,23.65
2023-01-09T12:43:30.491Z,25.67
2023-01-09T12:45:07.862Z,24.67
2023-01-09T12:46:19.966Z,32.80
2023-01-09T12:47:48.631Z,26.85
2023-01-09T12:48:54.664Z,25.20
2023-01-09T12:50:19.123Z,27.25
2023-01-09T12:51:47.423Z,28.50
2023-01-09T12:53:36.254Z,27.35
2023-01-09T12:55:00.187Z,24.75
2023-01-09T12:56:19.505Z,28.30
2023-01-09T12:57:36.541Z,23.65
2023-01-09T12:58:58.108Z,27.33
2023-01-09T13:00:05.581Z,25.13
2023-01-09T13:01:21.709Z,24.65
2023-01-09T13:03:00.433Z,25.55
2023-01-09T13:04:37.296Z,24.40
2023-01-09T13:05:53.845Z,23.92
2023-01-09T13:18:02.112Z,26.17
2023-01-09T13:19:26.374Z,24.85
2023-01-09T13:20:50.968Z,24.45
2023-01-09T13:21:56.830Z,27.77
2023-01-09T13:23:02.872Z,29.08
2023-01-09T13:24:37.060Z,25.63
2023-01-09T13:25:45.744Z,27.67
2023-01-09T13:27:09.874Z,25.45
2023-01-09T13:28:25.178Z,25.98
2023-01-09T13:30:23.258Z,27.38
2023-01-09T13:32:03.204Z,24.23
2023-01-09T13:33:31.057Z,26.48
2023-01-09T13:34:37.266Z,26.73
2023-01-09T13:36:20.452Z,25.33
2023-01-09T13:37:33.711Z,25.40
2023-01-09T13:38:38.808Z,23.98
2023-01-09T13:39:42.039Z,25.58
2023-01-09T13:40:45.544Z,24.83
2023-01-09T13:42:18.612Z,26.17
2023-01-09T13:43:21.754Z,22.55
2023-01-09T13:44:31.855Z,27.20
2023-01-09T13:45:38.159Z,24.67
2023-01-09T13:46:48.933Z,23.23
2023-01-09T13:49:39.296Z,29.60
2023-01-09T13:50:44.400Z,29.05
2023-01-09T13:51:59.879Z,26.90
2023-01-09T13:53:25.498Z,21.48
2023-01-09T13:54:47.105Z,23.05
2023-01-09T13:55:59.780Z,26.23
2023-01-09T13:57:21.087Z,22.55
2023-01-09T13:58:37.646Z,24.75
2023-01-09T13:59:40.941Z,22.92
2023-01-09T14:00:44.160Z,23.83
2023-01-09T14:01:47.972Z,21.25
2023-01-09T14:03:04.040Z,20.35
2023-01-09T14:04:09.929Z,21.60
2023-01-09T14:05:37.288Z,19.50
2023-01-09T14:06:40.717Z,21.70
2023-01-09T14:07:49.632Z,20.30
2023-01-09T14:09:22.328Z,19.70
2023-01-09T14:10:35.233Z,21.95
2023-01-09T14:11:38.628Z,21.33
2023-01-09T14:12:43.705Z,20.98
2023-01-09T14:13:52.643Z,20.20
2023-01-09T14:15:02.062Z,23.40
2023-01-09T14:16:27.422Z,20.45
2023-01-09T14:17:38.737Z,19.75
2023-01-09T14:19:06.911Z,19.85
2023-01-09T14:20:28.472Z,25.55
2023-01-09T14:21:54.295Z,23.40
2023-01-09T14:23:16.292Z,26.95
2023-01-09T14:24:47.286Z,21.92
2023-01-09T14:25:52.907Z,21.02
2023-01-09T14:27:01.664Z,19.95
2023-01-09T14:28:18.867Z,21.40
2023-01-09T14:29:40.986Z,23.42
2023-01-09T14:30:52.877Z,20.15
2023-01-09T14:32:26.439Z,21.33
2023-01-09T14:33:32.704Z,23.33
2023-01-09T14:34:39.175Z,23.88
2023-01-09T14:36:05.911Z,25.48
2023-01-09T14:37:13.597Z,23.48
2023-01-09T14:38:52.787Z,20.83
2023-01-09T14:39:56.688Z,22.67
2023-01-09T14:42:06.172Z,24.88
2023-01-09T14:43:26.562Z,20.15
2023-01-09T14:44:51.088Z,22.85
2023-01-09T14:46:03.984Z,20.83
2023-01-09T14:47:45.393Z,24.90
2023-01-09T14:49:07.334Z,20.23
2023-01-09T14:50:51.023Z,22.95
2023-01-09T14:51:55.604Z,20.85
2023-01-09T14:53:21.404Z,22.75
2023-01-09T14:54:44.163Z,20.52
2023-01-09T14:56:00.735Z,21.85
2023-01-09T14:57:22.640Z,21.42
2023-01-09T14:58:29.345Z,19.17
2023-01-09T14:59:32.547Z,21.17
2023-01-09T15:00:35.942Z,21.42
2023-01-09T15:01:43.831Z,22.90
2023-01-09T15:02:48.970Z,18.85
2023-01-09T15:03:59.543Z,19.77
2023-01-09T15:06:24.550Z,20.13
2023-01-09T15:07:34.332Z,23.42
2023-01-09T15:08:37.585Z,20.53
2023-01-09T15:09:48.240Z,20.55
2023-01-09T15:10:54.574Z,23.23
2023-01-09T15:12:04.723Z,26.92
2023-01-09T15:13:17.164Z,20.95
2023-01-09T15:14:55.954Z,21.67
2023-01-09T15:16:00.701Z,23.90
2023-01-09T15:17:04.981Z,18.88
2023-01-09T15:18:11.058Z,22.00
2023-01-09T15:19:15.412Z,25.45
2023-01-09T15:20:30.321Z,21.23
2023-01-09T15:21:33.601Z,20.13
2023-01-09T15:22:38.158Z,21.27
2023-01-09T15:23:41.450Z,22.20